Cotton, Missouri
Current Conditions -  °F | °C
As of 3:15 PM on Saturday 22 Nov 2014 (Local Time) from KVER Reporting Station
Overcast Overcast  
Wind Chill: 62°   Ceiling: 2700
Heat Index: 62°   Visibility: 10mi
Dew Point: 50°   Wind: 10mph
Humidity: 65%   Direction: 190°S
Pressure: 29.87"   Gusts: NA
Location:  38.7427°N, 92.7977°W
Report Text: KVER 222115Z AUTO 19009KT 150V210 10SM OVC027 17/10 A2987 RMK AO2 T01650100
Loading
Personal Weather Stations






























Interactive Weather Map New forecast layout! Learn more

10-Day Weather Forecast

Advertisements
Track Severe Weather on mobile